sensor_id;sensor_type;location;lat;lon;timestamp;pressure;altitude;pressure_sealevel;temperature
72405;BMP280;60395;52.020;113.548;2023-08-01T00:02:20;92231.44;;;39.14
72405;BMP280;60395;52.020;113.548;2023-08-01T00:05:24;92218.41;;;39.70
72405;BMP280;60395;52.020;113.548;2023-08-01T00:08:27;92220.66;;;39.41
72405;BMP280;60395;52.020;113.548;2023-08-01T00:11:31;92223.84;;;40.40
72405;BMP280;60395;52.020;113.548;2023-08-01T00:14:36;92211.34;;;41.27
72405;BMP280;60395;52.020;113.548;2023-08-01T00:17:41;92206.97;;;41.59
72405;BMP280;60395;52.020;113.548;2023-08-01T00:20:44;92204.28;;;41.32
72405;BMP280;60395;52.020;113.548;2023-08-01T00:23:47;92205.09;;;41.71
72405;BMP280;60395;52.020;113.548;2023-08-01T00:26:51;92201.38;;;41.91
72405;BMP280;60395;52.020;113.548;2023-08-01T00:29:57;92198.88;;;42.55
72405;BMP280;60395;52.020;113.548;2023-08-01T00:33:01;92186.69;;;41.79
72405;BMP280;60395;52.020;113.548;2023-08-01T00:36:04;92184.97;;;41.50
72405;BMP280;60395;52.020;113.548;2023-08-01T00:39:12;92181.91;;;41.39
72405;BMP280;60395;52.020;113.548;2023-08-01T00:42:15;92178.38;;;41.88
72405;BMP280;60395;52.020;113.548;2023-08-01T00:45:18;92169.84;;;41.81
72405;BMP280;60395;52.020;113.548;2023-08-01T00:48:22;92186.53;;;41.36
72405;BMP280;60395;52.020;113.548;2023-08-01T00:51:26;92179.16;;;41.39
72405;BMP280;60395;52.020;113.548;2023-08-01T00:54:30;92179.81;;;41.21
72405;BMP280;60395;52.020;113.548;2023-08-01T00:57:39;92179.81;;;40.40
72405;BMP280;60395;52.020;113.548;2023-08-01T01:00:43;92183.47;;;39.04
72405;BMP280;60395;52.020;113.548;2023-08-01T01:03:47;92186.19;;;38.03
72405;BMP280;60395;52.020;113.548;2023-08-01T01:10:02;92169.59;;;36.02
72405;BMP280;60395;52.020;113.548;2023-08-01T01:13:06;92169.78;;;35.11
72405;BMP280;60395;52.020;113.548;2023-08-01T01:16:09;92166.63;;;34.45
72405;BMP280;60395;52.020;113.548;2023-08-01T01:19:12;92171.06;;;33.75
72405;BMP280;60395;52.020;113.548;2023-08-01T01:22:16;92168.66;;;33.45
72405;BMP280;60395;52.020;113.548;2023-08-01T01:25:26;92173.69;;;33.02
72405;BMP280;60395;52.020;113.548;2023-08-01T01:28:31;92173.38;;;32.65
72405;BMP280;60395;52.020;113.548;2023-08-01T01:31:35;92175.84;;;32.14
72405;BMP280;60395;52.020;113.548;2023-08-01T01:34:39;92174.00;;;31.88
72405;BMP280;60395;52.020;113.548;2023-08-01T01:37:42;92173.53;;;31.92
72405;BMP280;60395;52.020;113.548;2023-08-01T01:40:45;92176.72;;;31.88
72405;BMP280;60395;52.020;113.548;2023-08-01T01:43:48;92176.16;;;31.81
72405;BMP280;60395;52.020;113.548;2023-08-01T01:46:52;92178.44;;;31.61
72405;BMP280;60395;52.020;113.548;2023-08-01T01:49:55;92170.00;;;31.15
72405;BMP280;60395;52.020;113.548;2023-08-01T01:52:58;92172.69;;;30.91
72405;BMP280;60395;52.020;113.548;2023-08-01T01:56:02;92170.47;;;30.74
72405;BMP280;60395;52.020;113.548;2023-08-01T01:59:05;92170.00;;;30.78
72405;BMP280;60395;52.020;113.548;2023-08-01T02:02:08;92165.81;;;30.85
72405;BMP280;60395;52.020;113.548;2023-08-01T02:05:12;92168.91;;;30.88
72405;BMP280;60395;52.020;113.548;2023-08-01T02:08:15;92166.25;;;30.81
72405;BMP280;60395;52.020;113.548;2023-08-01T02:11:18;92167.44;;;30.89
72405;BMP280;60395;52.020;113.548;2023-08-01T02:14:22;92164.34;;;30.86
72405;BMP280;60395;52.020;113.548;2023-08-01T02:17:25;92167.53;;;30.76
72405;BMP280;60395;52.020;113.548;2023-08-01T02:20:28;92167.75;;;30.74
72405;BMP280;60395;52.020;113.548;2023-08-01T02:23:32;92164.34;;;30.86
72405;BMP280;60395;52.020;113.548;2023-08-01T02:26:39;92158.44;;;30.97
72405;BMP280;60395;52.020;113.548;2023-08-01T02:29:43;92158.25;;;30.92
72405;BMP280;60395;52.020;113.548;2023-08-01T02:32:47;92150.44;;;30.71
72405;BMP280;60395;52.020;113.548;2023-08-01T02:35:51;92141.78;;;30.44
72405;BMP280;60395;52.020;113.548;2023-08-01T02:38:54;92145.59;;;30.34
72405;BMP280;60395;52.020;113.548;2023-08-01T02:41:58;92142.25;;;30.34
72405;BMP280;60395;52.020;113.548;2023-08-01T02:45:01;92146.69;;;30.24
72405;BMP280;60395;52.020;113.548;2023-08-01T02:48:04;92143.34;;;30.24
72405;BMP280;60395;52.020;113.548;2023-08-01T02:51:08;92146.69;;;30.18
72405;BMP280;60395;52.020;113.548;2023-08-01T02:54:14;92141.06;;;30.20
72405;BMP280;60395;52.020;113.548;2023-08-01T02:57:17;92131.50;;;30.21
72405;BMP280;60395;52.020;113.548;2023-08-01T03:00:20;92132.50;;;30.24
72405;BMP280;60395;52.020;113.548;2023-08-01T03:03:23;92134.78;;;30.28
72405;BMP280;60395;52.020;113.548;2023-08-01T03:06:27;92135.38;;;30.41
72405;BMP280;60395;52.020;113.548;2023-08-01T03:09:32;92132.34;;;30.63
72405;BMP280;60395;52.020;113.548;2023-08-01T03:12:35;92132.97;;;30.94
72405;BMP280;60395;52.020;113.548;2023-08-01T03:15:38;92136.94;;;30.95
72405;BMP280;60395;52.020;113.548;2023-08-01T03:18:42;92138.88;;;30.90
72405;BMP280;60395;52.020;113.548;2023-08-01T03:21:45;92134.78;;;31.09
72405;BMP280;60395;52.020;113.548;2023-08-01T03:24:49;92138.66;;;31.23
72405;BMP280;60395;52.020;113.548;2023-08-01T03:27:52;92136.03;;;31.10
72405;BMP280;60395;52.020;113.548;2023-08-01T03:30:57;92130.38;;;30.81
72405;BMP280;60395;52.020;113.548;2023-08-01T03:34:00;92122.34;;;30.61
72405;BMP280;60395;52.020;113.548;2023-08-01T03:37:04;92119.66;;;30.55
72405;BMP280;60395;52.020;113.548;2023-08-01T03:40:07;92117.75;;;30.60
72405;BMP280;60395;52.020;113.548;2023-08-01T03:43:13;92108.91;;;30.79
72405;BMP280;60395;52.020;113.548;2023-08-01T03:46:17;92114.91;;;30.86
72405;BMP280;60395;52.020;113.548;2023-08-01T03:49:22;92106.97;;;30.84
72405;BMP280;60395;52.020;113.548;2023-08-01T03:52:26;92102.63;;;30.80
72405;BMP280;60395;52.020;113.548;2023-08-01T03:55:29;92099.06;;;30.82
72405;BMP280;60395;52.020;113.548;2023-08-01T03:58:33;92091.31;;;30.91
72405;BMP280;60395;52.020;113.548;2023-08-01T04:01:36;92089.19;;;30.98
72405;BMP280;60395;52.020;113.548;2023-08-01T04:04:39;92093.06;;;31.06
72405;BMP280;60395;52.020;113.548;2023-08-01T04:07:43;92090.09;;;31.14
72405;BMP280;60395;52.020;113.548;2023-08-01T04:10:46;92088.56;;;31.22
72405;BMP280;60395;52.020;113.548;2023-08-01T04:13:49;92086.59;;;31.33
72405;BMP280;60395;52.020;113.548;2023-08-01T04:16:52;92086.31;;;31.42
72405;BMP280;60395;52.020;113.548;2023-08-01T04:19:55;92074.53;;;31.50
72405;BMP280;60395;52.020;113.548;2023-08-01T04:22:59;92078.81;;;31.60
72405;BMP280;60395;52.020;113.548;2023-08-01T04:26:02;92078.34;;;31.64
72405;BMP280;60395;52.020;113.548;2023-08-01T04:29:08;92081.00;;;31.70
72405;BMP280;60395;52.020;113.548;2023-08-01T04:32:12;92079.06;;;31.75
72405;BMP280;60395;52.020;113.548;2023-08-01T04:35:17;92072.94;;;31.81
72405;BMP280;60395;52.020;113.548;2023-08-01T04:38:20;92066.59;;;31.89
72405;BMP280;60395;52.020;113.548;2023-08-01T04:41:23;92066.91;;;31.98
72405;BMP280;60395;52.020;113.548;2023-08-01T04:44:27;92071.56;;;32.11
72405;BMP280;60395;52.020;113.548;2023-08-01T04:47:30;92063.88;;;32.25
72405;BMP280;60395;52.020;113.548;2023-08-01T04:50:34;92063.72;;;32.20
72405;BMP280;60395;52.020;113.548;2023-08-01T04:53:37;92050.53;;;32.23
72405;BMP280;60395;52.020;113.548;2023-08-01T04:56:40;92043.72;;;32.17
72405;BMP280;60395;52.020;113.548;2023-08-01T04:59:43;92052.50;;;32.18
72405;BMP280;60395;52.020;113.548;2023-08-01T05:02:47;92047.66;;;32.18
72405;BMP280;60395;52.020;113.548;2023-08-01T05:05:50;92053.47;;;32.21
72405;BMP280;60395;52.020;113.548;2023-08-01T05:08:54;92047.09;;;32.29
72405;BMP280;60395;52.020;113.548;2023-08-01T05:11:57;92045.53;;;32.19
72405;BMP280;60395;52.020;113.548;2023-08-01T05:15:00;92041.13;;;32.22
72405;BMP280;60395;52.020;113.548;2023-08-01T05:18:04;92036.00;;;32.31
72405;BMP280;60395;52.020;113.548;2023-08-01T05:21:07;92037.72;;;32.28
72405;BMP280;60395;52.020;113.548;2023-08-01T05:24:10;92028.59;;;32.36
72405;BMP280;60395;52.020;113.548;2023-08-01T05:27:13;92026.19;;;32.45
72405;BMP280;60395;52.020;113.548;2023-08-01T05:30:17;92025.94;;;32.47
72405;BMP280;60395;52.020;113.548;2023-08-01T05:33:20;92018.88;;;32.43
72405;BMP280;60395;52.020;113.548;2023-08-01T05:36:23;92016.78;;;32.44
72405;BMP280;60395;52.020;113.548;2023-08-01T05:39:26;92007.63;;;32.41
72405;BMP280;60395;52.020;113.548;2023-08-01T05:42:30;92010.44;;;32.34
72405;BMP280;60395;52.020;113.548;2023-08-01T05:45:33;92011.38;;;32.26
72405;BMP280;60395;52.020;113.548;2023-08-01T05:48:36;92012.25;;;32.25
72405;BMP280;60395;52.020;113.548;2023-08-01T05:51:40;92006.72;;;32.31
72405;BMP280;60395;52.020;113.548;2023-08-01T05:54:43;91996.19;;;32.51
72405;BMP280;60395;52.020;113.548;2023-08-01T05:57:46;92000.81;;;32.64
72405;BMP280;60395;52.020;113.548;2023-08-01T06:00:51;92003.81;;;32.73
72405;BMP280;60395;52.020;113.548;2023-08-01T06:03:55;91996.63;;;32.76
72405;BMP280;60395;52.020;113.548;2023-08-01T06:06:58;91997.53;;;32.85
72405;BMP280;60395;52.020;113.548;2023-08-01T06:10:01;91989.47;;;32.79
72405;BMP280;60395;52.020;113.548;2023-08-01T06:13:05;91993.16;;;32.71
72405;BMP280;60395;52.020;113.548;2023-08-01T06:16:08;91988.22;;;32.67
72405;BMP280;60395;52.020;113.548;2023-08-01T06:19:12;91988.78;;;32.96
72405;BMP280;60395;52.020;113.548;2023-08-01T06:22:15;91994.66;;;32.70
72405;BMP280;60395;52.020;113.548;2023-08-01T06:25:19;91993.16;;;32.71
72405;BMP280;60395;52.020;113.548;2023-08-01T06:28:22;91985.00;;;32.71
72405;BMP280;60395;52.020;113.548;2023-08-01T06:31:25;91983.63;;;32.65
72405;BMP280;60395;52.020;113.548;2023-08-01T06:34:29;91976.09;;;32.66
72405;BMP280;60395;52.020;113.548;2023-08-01T06:37:32;91978.91;;;32.59
72405;BMP280;60395;52.020;113.548;2023-08-01T06:40:36;91980.66;;;32.56
72405;BMP280;60395;52.020;113.548;2023-08-01T06:43:39;91979.03;;;32.64
72405;BMP280;60395;52.020;113.548;2023-08-01T06:46:42;91975.47;;;32.65
72405;BMP280;60395;52.020;113.548;2023-08-01T06:49:46;91963.25;;;32.71
72405;BMP280;60395;52.020;113.548;2023-08-01T06:52:49;91972.66;;;32.72
72405;BMP280;60395;52.020;113.548;2023-08-01T06:55:52;91963.94;;;33.15
72405;BMP280;60395;52.020;113.548;2023-08-01T06:58:56;91958.50;;;33.38
72405;BMP280;60395;52.020;113.548;2023-08-01T07:02:00;91961.47;;;33.47
72405;BMP280;60395;52.020;113.548;2023-08-01T07:05:04;91960.50;;;33.33
72405;BMP280;60395;52.020;113.548;2023-08-01T07:08:07;91960.50;;;33.33
72405;BMP280;60395;52.020;113.548;2023-08-01T07:11:11;91955.91;;;33.31
72405;BMP280;60395;52.020;113.548;2023-08-01T07:14:14;91957.03;;;33.28
72405;BMP280;60395;52.020;113.548;2023-08-01T07:17:17;91958.97;;;33.22
72405;BMP280;60395;52.020;113.548;2023-08-01T07:20:21;91953.41;;;33.18
72405;BMP280;60395;52.020;113.548;2023-08-01T07:23:24;91948.50;;;33.14
72405;BMP280;60395;52.020;113.548;2023-08-01T07:26:27;91955.66;;;33.22
72405;BMP280;60395;52.020;113.548;2023-08-01T07:29:32;91957.41;;;33.19
72405;BMP280;60395;52.020;113.548;2023-08-01T07:32:36;91950.44;;;33.09
72405;BMP280;60395;52.020;113.548;2023-08-01T07:35:41;91956.41;;;33.05
72405;BMP280;60395;52.020;113.548;2023-08-01T07:38:44;91948.97;;;32.88
72405;BMP280;60395;52.020;113.548;2023-08-01T07:41:48;91950.78;;;32.78
72405;BMP280;60395;52.020;113.548;2023-08-01T07:44:51;91946.69;;;32.62
72405;BMP280;60395;52.020;113.548;2023-08-01T07:47:54;91949.00;;;32.59
72405;BMP280;60395;52.020;113.548;2023-08-01T07:50:57;91953.06;;;32.54
72405;BMP280;60395;52.020;113.548;2023-08-01T07:54:01;91947.34;;;32.45
72405;BMP280;60395;52.020;113.548;2023-08-01T07:57:05;91946.47;;;32.46
72405;BMP280;60395;52.020;113.548;2023-08-01T08:00:08;91945.53;;;32.54
72405;BMP280;60395;52.020;113.548;2023-08-01T08:03:15;91948.09;;;32.50
72405;BMP280;60395;52.020;113.548;2023-08-01T08:06:19;91943.16;;;32.46
72405;BMP280;60395;52.020;113.548;2023-08-01T08:09:24;91945.22;;;32.34
72405;BMP280;60395;52.020;113.548;2023-08-01T08:12:27;91941.88;;;32.34
72405;BMP280;60395;52.020;113.548;2023-08-01T08:15:30;91945.31;;;32.28
72405;BMP280;60395;52.020;113.548;2023-08-01T08:18:37;91935.59;;;32.07
72405;BMP280;60395;52.020;113.548;2023-08-01T08:21:40;91927.44;;;31.89
72405;BMP280;60395;52.020;113.548;2023-08-01T08:24:43;91918.59;;;31.95
72405;BMP280;60395;52.020;113.548;2023-08-01T08:27:49;91927.25;;;32.02
72405;BMP280;60395;52.020;113.548;2023-08-01T08:30:52;91921.06;;;31.97
72405;BMP280;60395;52.020;113.548;2023-08-01T08:33:55;91921.81;;;32.02
72405;BMP280;60395;52.020;113.548;2023-08-01T08:36:58;91921.69;;;31.97
72405;BMP280;60395;52.020;113.548;2023-08-01T08:40:02;91918.97;;;31.97
72405;BMP280;60395;52.020;113.548;2023-08-01T08:43:06;91917.91;;;32.01
72405;BMP280;60395;52.020;113.548;2023-08-01T08:46:10;91917.22;;;32.18
72405;BMP280;60395;52.020;113.548;2023-08-01T08:49:15;91913.03;;;32.19
72405;BMP280;60395;52.020;113.548;2023-08-01T08:52:19;91918.84;;;32.22
72405;BMP280;60395;52.020;113.548;2023-08-01T08:55:23;91913.66;;;32.20
72405;BMP280;60395;52.020;113.548;2023-08-01T08:58:29;91914.31;;;32.02
72405;BMP280;60395;52.020;113.548;2023-08-01T09:01:34;91913.22;;;32.06
72405;BMP280;60395;52.020;113.548;2023-08-01T09:04:37;91915.41;;;31.99
72405;BMP280;60395;52.020;113.548;2023-08-01T09:07:42;91908.88;;;32.02
72405;BMP280;60395;52.020;113.548;2023-08-01T09:10:47;91913.19;;;31.95
72405;BMP280;60395;52.020;113.548;2023-08-01T09:13:50;91925.06;;;31.80
72405;BMP280;60395;52.020;113.548;2023-08-01T09:16:53;91922.06;;;31.71
72405;BMP280;60395;52.020;113.548;2023-08-01T09:20:04;91926.63;;;31.73
72405;BMP280;60395;52.020;113.548;2023-08-01T09:23:10;91920.22;;;31.52
72405;BMP280;60395;52.020;113.548;2023-08-01T09:26:19;91916.00;;;31.53
72405;BMP280;60395;52.020;113.548;2023-08-01T09:29:22;91915.75;;;31.38
72405;BMP280;60395;52.020;113.548;2023-08-01T09:32:26;91911.91;;;31.30
72405;BMP280;60395;52.020;113.548;2023-08-01T09:35:38;91905.94;;;31.41
72405;BMP280;60395;52.020;113.548;2023-08-01T09:38:42;91905.44;;;31.27
72405;BMP280;60395;52.020;113.548;2023-08-01T09:41:45;91911.50;;;31.28
72405;BMP280;60395;52.020;113.548;2023-08-01T09:44:48;91904.06;;;31.57
72405;BMP280;60395;52.020;113.548;2023-08-01T09:47:52;91902.22;;;31.55
72405;BMP280;60395;52.020;113.548;2023-08-01T09:51:12;91907.16;;;31.77
72405;BMP280;60395;52.020;113.548;2023-08-01T09:54:16;91912.44;;;31.72
72405;BMP280;60395;52.020;113.548;2023-08-01T09:57:21;91908.41;;;31.60
72405;BMP280;60395;52.020;113.548;2023-08-01T10:00:29;91912.31;;;31.50
72405;BMP280;60395;52.020;113.548;2023-08-01T10:03:32;91916.25;;;31.34
72405;BMP280;60395;52.020;113.548;2023-08-01T10:06:37;91914.06;;;31.23
72405;BMP280;60395;52.020;113.548;2023-08-01T10:09:42;91918.16;;;31.11
72405;BMP280;60395;52.020;113.548;2023-08-01T10:12:46;91917.03;;;30.97
72405;BMP280;60395;52.020;113.548;2023-08-01T10:15:52;91915.75;;;30.78
72405;BMP280;60395;52.020;113.548;2023-08-01T10:18:57;91925.75;;;30.56
72405;BMP280;60395;52.020;113.548;2023-08-01T10:22:02;91922.16;;;30.33
72405;BMP280;60395;52.020;113.548;2023-08-01T10:25:08;91921.69;;;30.13
72405;BMP280;60395;52.020;113.548;2023-08-01T10:28:12;91912.88;;;29.88
72405;BMP280;60395;52.020;113.548;2023-08-01T10:31:17;91916.47;;;29.80
72405;BMP280;60395;52.020;113.548;2023-08-01T10:34:21;91914.06;;;29.59
72405;BMP280;60395;52.020;113.548;2023-08-01T10:37:38;91927.84;;;29.50
72405;BMP280;60395;52.020;113.548;2023-08-01T10:40:41;91916.16;;;29.58
72405;BMP280;60395;52.020;113.548;2023-08-01T10:43:48;91920.16;;;29.46
72405;BMP280;60395;52.020;113.548;2023-08-01T10:46:56;91920.78;;;29.40
72405;BMP280;60395;52.020;113.548;2023-08-01T10:50:00;91925.81;;;29.31
72405;BMP280;60395;52.020;113.548;2023-08-01T10:53:08;91915.78;;;29.36
72405;BMP280;60395;52.020;113.548;2023-08-01T10:56:19;91919.78;;;29.31
72405;BMP280;60395;52.020;113.548;2023-08-01T10:59:25;91923.13;;;29.25
72405;BMP280;60395;52.020;113.548;2023-08-01T11:02:29;91924.63;;;29.17
72405;BMP280;60395;52.020;113.548;2023-08-01T11:05:33;91926.09;;;29.10
72405;BMP280;60395;52.020;113.548;2023-08-01T11:08:38;91919.41;;;29.02
72405;BMP280;60395;52.020;113.548;2023-08-01T11:11:41;91924.25;;;28.88
72405;BMP280;60395;52.020;113.548;2023-08-01T11:14:45;91916.56;;;28.78
72405;BMP280;60395;52.020;113.548;2023-08-01T11:17:52;91916.16;;;28.62
72405;BMP280;60395;52.020;113.548;2023-08-01T11:20:56;91925.50;;;28.50
72405;BMP280;60395;52.020;113.548;2023-08-01T11:23:59;91932.16;;;28.38
72405;BMP280;60395;52.020;113.548;2023-08-01T11:27:10;91921.94;;;28.26
72405;BMP280;60395;52.020;113.548;2023-08-01T11:30:13;91929.81;;;28.15
72405;BMP280;60395;52.020;113.548;2023-08-01T11:36:26;91939.72;;;27.83
72405;BMP280;60395;52.020;113.548;2023-08-01T11:39:30;91939.41;;;27.59
72405;BMP280;60395;52.020;113.548;2023-08-01T11:42:33;91939.31;;;27.40
72405;BMP280;60395;52.020;113.548;2023-08-01T11:45:36;91945.84;;;27.21
72405;BMP280;60395;52.020;113.548;2023-08-01T11:48:44;91943.66;;;27.02
72405;BMP280;60395;52.020;113.548;2023-08-01T11:51:49;91950.34;;;26.81
72405;BMP280;60395;52.020;113.548;2023-08-01T11:54:53;91953.38;;;26.71
72405;BMP280;60395;52.020;113.548;2023-08-01T11:57:59;91949.50;;;26.55
72405;BMP280;60395;52.020;113.548;2023-08-01T12:01:11;91941.09;;;26.44
72405;BMP280;60395;52.020;113.548;2023-08-01T12:04:27;91939.75;;;26.29
72405;BMP280;60395;52.020;113.548;2023-08-01T12:07:31;91935.22;;;26.13
72405;BMP280;60395;52.020;113.548;2023-08-01T12:10:39;91938.84;;;26.03
72405;BMP280;60395;52.020;113.548;2023-08-01T12:13:43;91943.03;;;25.87
72405;BMP280;60395;52.020;113.548;2023-08-01T12:16:46;91945.78;;;25.78
72405;BMP280;60395;52.020;113.548;2023-08-01T12:19:50;91941.97;;;25.69
72405;BMP280;60395;52.020;113.548;2023-08-01T12:22:53;91952.84;;;25.60
72405;BMP280;60395;52.020;113.548;2023-08-01T12:25:56;91945.06;;;25.49
72405;BMP280;60395;52.020;113.548;2023-08-01T12:29:00;91955.72;;;25.43
72405;BMP280;60395;52.020;113.548;2023-08-01T12:32:04;91961.00;;;25.36
72405;BMP280;60395;52.020;113.548;2023-08-01T12:35:07;91966.09;;;25.32
72405;BMP280;60395;52.020;113.548;2023-08-01T12:38:11;91981.97;;;25.27
72405;BMP280;60395;52.020;113.548;2023-08-01T12:41:14;91978.66;;;25.27
72405;BMP280;60395;52.020;113.548;2023-08-01T12:47:20;91971.63;;;25.15
72405;BMP280;60395;52.020;113.548;2023-08-01T12:50:24;91972.34;;;25.07
72405;BMP280;60395;52.020;113.548;2023-08-01T12:53:27;91978.72;;;25.03
72405;BMP280;60395;52.020;113.548;2023-08-01T12:56:37;91976.47;;;25.06
72405;BMP280;60395;52.020;113.548;2023-08-01T12:59:41;91983.09;;;25.07
72405;BMP280;60395;52.020;113.548;2023-08-01T13:02:44;91981.50;;;25.10
72405;BMP280;60395;52.020;113.548;2023-08-01T13:05:47;91982.50;;;25.06
72405;BMP280;60395;52.020;113.548;2023-08-01T13:08:51;91976.47;;;25.06
72405;BMP280;60395;52.020;113.548;2023-08-01T13:11:54;91967.16;;;25.05
72405;BMP280;60395;52.020;113.548;2023-08-01T13:14:59;91968.31;;;24.99
72405;BMP280;60395;52.020;113.548;2023-08-01T13:18:18;91961.69;;;24.98
72405;BMP280;60395;52.020;113.548;2023-08-01T13:21:22;91963.00;;;24.91
72405;BMP280;60395;52.020;113.548;2023-08-01T13:24:26;91960.13;;;24.78
72405;BMP280;60395;52.020;113.548;2023-08-01T13:27:29;91961.81;;;24.66
72405;BMP280;60395;52.020;113.548;2023-08-01T13:30:32;91954.41;;;24.58
72405;BMP280;60395;52.020;113.548;2023-08-01T13:33:36;91943.59;;;24.51
72405;BMP280;60395;52.020;113.548;2023-08-01T13:36:39;91946.44;;;24.49
72405;BMP280;60395;52.020;113.548;2023-08-01T13:39:43;91942.38;;;24.42
72405;BMP280;60395;52.020;113.548;2023-08-01T13:42:48;91944.94;;;24.35
72405;BMP280;60395;52.020;113.548;2023-08-01T13:45:51;91938.66;;;24.30
72405;BMP280;60395;52.020;113.548;2023-08-01T13:48:56;91940.44;;;24.25
72405;BMP280;60395;52.020;113.548;2023-08-01T13:52:00;91940.34;;;24.19
72405;BMP280;60395;52.020;113.548;2023-08-01T13:55:03;91938.44;;;24.17
72405;BMP280;60395;52.020;113.548;2023-08-01T13:58:07;91947.44;;;24.14
72405;BMP280;60395;52.020;113.548;2023-08-01T14:01:11;91933.56;;;24.11
72405;BMP280;60395;52.020;113.548;2023-08-01T14:04:14;91937.56;;;24.04
72405;BMP280;60395;52.020;113.548;2023-08-01T14:07:17;91940.31;;;23.95
72405;BMP280;60395;52.020;113.548;2023-08-01T14:10:20;91937.75;;;23.93
72405;BMP280;60395;52.020;113.548;2023-08-01T14:13:24;91942.53;;;23.92
72405;BMP280;60395;52.020;113.548;2023-08-01T14:16:28;91937.31;;;23.90
72405;BMP280;60395;52.020;113.548;2023-08-01T14:19:32;91934.66;;;23.90
72405;BMP280;60395;52.020;113.548;2023-08-01T14:22:35;91940.31;;;23.86
72405;BMP280;60395;52.020;113.548;2023-08-01T14:25:38;91945.13;;;23.77
72405;BMP280;60395;52.020;113.548;2023-08-01T14:28:42;91940.25;;;23.71
72405;BMP280;60395;52.020;113.548;2023-08-01T14:31:45;91943.88;;;23.68
72405;BMP280;60395;52.020;113.548;2023-08-01T14:34:49;91945.00;;;23.62
72405;BMP280;60395;52.020;113.548;2023-08-01T14:37:52;91940.28;;;23.63
72405;BMP280;60395;52.020;113.548;2023-08-01T14:40:55;91950.19;;;23.64
72405;BMP280;60395;52.020;113.548;2023-08-01T14:44:01;91949.31;;;23.51
72405;BMP280;60395;52.020;113.548;2023-08-01T14:47:05;91943.03;;;23.37
72405;BMP280;60395;52.020;113.548;2023-08-01T14:50:09;91939.41;;;23.32
72405;BMP280;60395;52.020;113.548;2023-08-01T14:53:13;91949.34;;;23.34
72405;BMP280;60395;52.020;113.548;2023-08-01T14:56:16;91946.19;;;23.31
72405;BMP280;60395;52.020;113.548;2023-08-01T14:59:19;91946.22;;;23.23
72405;BMP280;60395;52.020;113.548;2023-08-01T15:02:23;91943.69;;;23.20
72405;BMP280;60395;52.020;113.548;2023-08-01T15:05:26;91947.16;;;23.28
72405;BMP280;60395;52.020;113.548;2023-08-01T15:08:30;91944.50;;;23.28
72405;BMP280;60395;52.020;113.548;2023-08-01T15:11:35;91944.97;;;23.30
72405;BMP280;60395;52.020;113.548;2023-08-01T15:14:38;91933.31;;;23.25
72405;BMP280;60395;52.020;113.548;2023-08-01T15:17:42;91936.78;;;23.24
72405;BMP280;60395;52.020;113.548;2023-08-01T15:20:46;91928.25;;;23.21
72405;BMP280;60395;52.020;113.548;2023-08-01T15:23:49;91934.56;;;23.17
72405;BMP280;60395;52.020;113.548;2023-08-01T15:26:53;91933.94;;;23.17
72405;BMP280;60395;52.020;113.548;2023-08-01T15:29:57;91928.91;;;23.13
72405;BMP280;60395;52.020;113.548;2023-08-01T15:33:01;91927.50;;;23.05
72405;BMP280;60395;52.020;113.548;2023-08-01T15:36:07;91923.56;;;22.96
72405;BMP280;60395;52.020;113.548;2023-08-01T15:39:10;91926.75;;;22.90
72405;BMP280;60395;52.020;113.548;2023-08-01T15:42:14;91922.66;;;22.91
72405;BMP280;60395;52.020;113.548;2023-08-01T15:45:18;91924.38;;;22.94
72405;BMP280;60395;52.020;113.548;2023-08-01T15:48:22;91910.97;;;23.03
72405;BMP280;60395;52.020;113.548;2023-08-01T15:51:26;91915.22;;;23.08
72405;BMP280;60395;52.020;113.548;2023-08-01T15:54:29;91915.53;;;23.13
72405;BMP280;60395;52.020;113.548;2023-08-01T15:57:32;91922.59;;;23.16
72405;BMP280;60395;52.020;113.548;2023-08-01T16:00:35;91914.56;;;23.16
72405;BMP280;60395;52.020;113.548;2023-08-01T16:03:41;91917.72;;;23.10
72405;BMP280;60395;52.020;113.548;2023-08-01T16:06:45;91914.59;;;23.08
72405;BMP280;60395;52.020;113.548;2023-08-01T16:09:48;91917.06;;;23.10
72405;BMP280;60395;52.020;113.548;2023-08-01T16:12:51;91912.84;;;23.13
72405;BMP280;60395;52.020;113.548;2023-08-01T16:15:55;91911.59;;;23.03
72405;BMP280;60395;52.020;113.548;2023-08-01T16:18:58;91914.13;;;22.97
72405;BMP280;60395;52.020;113.548;2023-08-01T16:22:02;91916.81;;;22.97
72405;BMP280;60395;52.020;113.548;2023-08-01T16:25:06;91919.00;;;22.94
72405;BMP280;60395;52.020;113.548;2023-08-01T16:28:09;91916.34;;;22.86
72405;BMP280;60395;52.020;113.548;2023-08-01T16:31:13;91915.72;;;22.68
72405;BMP280;60395;52.020;113.548;2023-08-01T16:34:16;91909.72;;;22.51
72405;BMP280;60395;52.020;113.548;2023-08-01T16:37:19;91907.22;;;22.40
72405;BMP280;60395;52.020;113.548;2023-08-01T16:40:26;91891.00;;;22.33
72405;BMP280;60395;52.020;113.548;2023-08-01T16:43:29;91888.44;;;22.23
72405;BMP280;60395;52.020;113.548;2023-08-01T16:46:32;91882.94;;;22.08
72405;BMP280;60395;52.020;113.548;2023-08-01T16:49:36;91892.38;;;22.07
72405;BMP280;60395;52.020;113.548;2023-08-01T16:52:39;91890.97;;;22.08
72405;BMP280;60395;52.020;113.548;2023-08-01T16:55:42;91900.72;;;22.11
72405;BMP280;60395;52.020;113.548;2023-08-01T16:58:46;91897.25;;;22.04
72405;BMP280;60395;52.020;113.548;2023-08-01T17:01:49;91896.44;;;21.97
72405;BMP280;60395;52.020;113.548;2023-08-01T17:04:52;91900.03;;;21.85
72405;BMP280;60395;52.020;113.548;2023-08-01T17:07:55;91896.81;;;21.65
72405;BMP280;60395;52.020;113.548;2023-08-01T17:11:04;91904.19;;;21.56
72405;BMP280;60395;52.020;113.548;2023-08-01T17:14:08;91905.25;;;21.51
72405;BMP280;60395;52.020;113.548;2023-08-01T17:17:11;91903.50;;;21.47
72405;BMP280;60395;52.020;113.548;2023-08-01T17:20:14;91901.81;;;21.52